createdAt,value
2019-02-06T00:01:20.541Z,83.92
2019-02-06T00:03:50.808Z,83.81
2019-02-06T00:06:20.739Z,83.75
2019-02-06T00:08:50.936Z,83.61
2019-02-06T00:11:20.785Z,83.52
2019-02-06T00:13:50.669Z,83.55
2019-02-06T00:16:20.600Z,83.58
2019-02-06T00:18:50.547Z,83.56
2019-02-06T00:21:20.819Z,83.54
2019-02-06T00:23:50.674Z,83.65
2019-02-06T00:26:20.544Z,83.69
2019-02-06T00:28:50.472Z,83.61
2019-02-06T00:31:20.393Z,83.60
2019-02-06T00:33:50.241Z,83.58
2019-02-06T00:36:20.409Z,83.55
2019-02-06T00:38:50.719Z,83.49
2019-02-06T00:41:20.563Z,83.54
2019-02-06T00:43:50.403Z,83.50
2019-02-06T00:46:20.263Z,83.47
2019-02-06T00:48:50.218Z,83.57
2019-02-06T00:51:20.128Z,83.57
2019-02-06T00:53:50.222Z,83.67
2019-02-06T00:56:20.022Z,83.61
2019-02-06T00:58:49.956Z,83.52
2019-02-06T01:01:19.964Z,83.50
2019-02-06T01:03:49.902Z,83.51
2019-02-06T01:06:19.816Z,83.61
2019-02-06T01:08:49.909Z,83.68
2019-02-06T01:11:19.852Z,83.67
2019-02-06T01:13:49.785Z,83.64
2019-02-06T01:16:19.704Z,83.80
2019-02-06T01:18:49.632Z,83.80
2019-02-06T01:21:19.544Z,83.75
2019-02-06T01:23:49.394Z,83.78
2019-02-06T01:26:19.318Z,83.86
2019-02-06T01:28:49.248Z,83.81
2019-02-06T01:31:24.874Z,83.84
2019-02-06T01:33:54.725Z,83.88
2019-02-06T01:36:25.144Z,83.69
2019-02-06T01:38:54.977Z,83.69
2019-02-06T01:41:25.144Z,83.63
2019-02-06T01:43:55.009Z,83.61
2019-02-06T01:46:24.885Z,83.65
2019-02-06T01:48:54.695Z,83.67
2019-02-06T01:51:24.920Z,83.69
2019-02-06T01:53:55.144Z,83.64
2019-02-06T01:56:24.918Z,83.59
2019-02-06T01:58:54.847Z,83.39
2019-02-06T02:01:24.766Z,83.41
2019-02-06T02:03:54.793Z,83.31
2019-02-06T02:06:24.987Z,83.24
2019-02-06T02:09:00.058Z,83.27
2019-02-06T02:11:30.177Z,83.17
2019-02-06T02:14:00.028Z,83.21
2019-02-06T02:16:30.063Z,83.18
2019-02-06T02:18:59.992Z,83.28
2019-02-06T02:21:30.264Z,83.30
2019-02-06T02:24:00.198Z,83.34
2019-02-06T02:26:30.056Z,83.37
2019-02-06T02:28:59.978Z,83.17
2019-02-06T02:31:29.937Z,83.08
2019-02-06T02:34:00.956Z,82.94
2019-02-06T02:36:30.894Z,82.93
2019-02-06T02:39:01.011Z,82.87
2019-02-06T02:41:32.408Z,82.75
2019-02-06T02:44:02.348Z,82.54
2019-02-06T02:46:32.753Z,82.61
2019-02-06T02:49:02.673Z,82.55
2019-02-06T02:51:32.609Z,82.54
2019-02-06T02:54:02.509Z,82.35
2019-02-06T02:56:32.455Z,82.39
2019-02-06T02:59:02.627Z,82.26
2019-02-06T03:01:46.276Z,82.16
2019-02-06T03:04:29.743Z,82.18
2019-02-06T03:06:59.675Z,82.19
2019-02-06T03:09:29.935Z,82.18
2019-02-06T03:11:59.855Z,82.18
2019-02-06T03:14:29.767Z,82.05
2019-02-06T03:17:03.062Z,81.93
2019-02-06T03:19:31.320Z,81.88
2019-02-06T03:22:01.249Z,81.78
2019-02-06T03:24:31.459Z,81.80
2019-02-06T03:27:01.306Z,81.78
2019-02-06T03:29:31.148Z,81.95
2019-02-06T03:32:01.083Z,81.85
2019-02-06T03:34:30.921Z,81.81
2019-02-06T03:37:00.857Z,81.69
2019-02-06T03:39:32.282Z,81.55
2019-02-06T03:42:02.210Z,81.48
2019-02-06T03:44:32.132Z,81.50
2019-02-06T03:47:02.062Z,81.46
2019-02-06T03:49:31.988Z,81.40
2019-02-06T03:52:01.856Z,81.24
2019-02-06T03:54:32.079Z,81.21
2019-02-06T03:57:02.374Z,80.99
2019-02-06T03:59:32.268Z,80.77
2019-02-06T04:02:02.148Z,80.76
2019-02-06T04:04:32.082Z,80.70
2019-02-06T04:07:02.315Z,80.62
2019-02-06T04:09:32.611Z,80.56
2019-02-06T04:12:02.825Z,80.61
2019-02-06T04:14:32.673Z,80.55
2019-02-06T04:17:02.539Z,80.41
2019-02-06T04:19:32.486Z,80.43
2019-02-06T04:22:02.415Z,80.46
2019-02-06T04:24:32.339Z,80.66
2019-02-06T04:27:02.274Z,80.87
2019-02-06T04:29:32.585Z,80.87
2019-02-06T04:32:02.850Z,80.92
2019-02-06T04:34:32.955Z,80.76
2019-02-06T04:37:06.677Z,80.76
2019-02-06T04:39:34.894Z,80.75
2019-02-06T04:42:04.825Z,80.77
2019-02-06T04:44:34.686Z,80.80
2019-02-06T04:47:04.621Z,80.90
2019-02-06T04:49:34.407Z,80.87
2019-02-06T04:52:04.725Z,81.01
2019-02-06T04:54:34.658Z,80.90
2019-02-06T04:57:04.708Z,80.91
2019-02-06T04:59:34.578Z,80.81
2019-02-06T05:02:04.494Z,80.84
2019-02-06T05:04:34.942Z,80.75
2019-02-06T05:07:05.293Z,80.59
2019-02-06T05:09:35.282Z,80.35
2019-02-06T05:12:09.096Z,80.23
2019-02-06T05:14:37.335Z,80.18
2019-02-06T05:17:07.265Z,80.01
2019-02-06T05:19:37.137Z,79.90
2019-02-06T05:22:07.778Z,79.84
2019-02-06T05:24:37.719Z,79.56
2019-02-06T05:27:07.585Z,79.60
2019-02-06T05:29:37.505Z,79.60
2019-02-06T05:32:07.431Z,79.56
2019-02-06T05:34:37.747Z,79.39
2019-02-06T05:37:07.762Z,79.40
2019-02-06T05:39:37.542Z,79.31
2019-02-06T05:42:07.471Z,79.39
2019-02-06T05:44:37.537Z,79.38
2019-02-06T05:47:07.400Z,79.40
2019-02-06T05:49:37.267Z,79.37
2019-02-06T05:52:07.205Z,79.50
2019-02-06T05:54:37.688Z,79.45
2019-02-06T05:57:07.660Z,79.30
2019-02-06T05:59:37.577Z,79.18
2019-02-06T06:02:07.840Z,79.05
2019-02-06T06:04:37.960Z,79.11
2019-02-06T06:07:07.896Z,79.20
2019-02-06T06:09:38.153Z,78.95
2019-02-06T06:12:08.073Z,78.60
2019-02-06T06:14:38.023Z,78.69
2019-02-06T06:17:07.953Z,78.75
2019-02-06T06:19:37.913Z,78.81
2019-02-06T06:22:07.938Z,79.02
2019-02-06T06:24:38.232Z,79.05
2019-02-06T06:27:08.204Z,78.87
2019-02-06T06:29:39.688Z,78.52
2019-02-06T06:32:09.618Z,77.90
2019-02-06T06:34:39.557Z,77.99
2019-02-06T06:37:09.428Z,77.92
2019-02-06T06:39:39.285Z,77.98
2019-02-06T06:42:09.225Z,78.09
2019-02-06T06:44:39.158Z,78.00
2019-02-06T06:47:09.374Z,77.90
2019-02-06T06:49:39.782Z,77.73
2019-02-06T06:52:10.030Z,77.97
2019-02-06T06:54:39.953Z,78.25
2019-02-06T06:57:12.306Z,77.95
2019-02-06T06:59:41.861Z,77.87
2019-02-06T07:02:11.806Z,77.84
2019-02-06T07:04:41.913Z,77.81
2019-02-06T07:07:12.168Z,77.48
2019-02-06T07:09:41.948Z,77.51
2019-02-06T07:12:11.873Z,77.48
2019-02-06T07:14:41.717Z,77.31
2019-02-06T07:17:11.660Z,77.13
2019-02-06T07:19:41.433Z,77.16
2019-02-06T07:22:11.372Z,77.05
2019-02-06T07:24:41.220Z,77.04
2019-02-06T07:27:11.161Z,77.03
2019-02-06T07:29:41.559Z,76.90
2019-02-06T07:32:12.826Z,76.90
2019-02-06T07:34:42.748Z,76.68
2019-02-06T07:37:13.312Z,76.67
2019-02-06T07:39:43.255Z,76.32
2019-02-06T07:42:14.164Z,75.98
2019-02-06T07:44:44.041Z,75.80
2019-02-06T07:47:14.373Z,75.84
2019-02-06T07:49:44.600Z,75.80
2019-02-06T07:52:14.470Z,75.80
2019-02-06T07:54:44.314Z,75.75
2019-02-06T07:57:14.257Z,75.54
2019-02-06T07:59:44.100Z,75.50
2019-02-06T08:02:15.095Z,75.44
2019-02-06T08:04:44.985Z,75.40
2019-02-06T08:07:14.841Z,75.49
2019-02-06T08:09:44.758Z,75.44
2019-02-06T08:12:14.885Z,75.24
2019-02-06T08:14:44.806Z,75.04
2019-02-06T08:17:14.731Z,75.01
2019-02-06T08:19:44.650Z,75.09
2019-02-06T08:22:14.566Z,75.09
2019-02-06T08:24:44.562Z,75.09
2019-02-06T08:27:14.577Z,74.95
2019-02-06T08:29:44.422Z,75.10
2019-02-06T08:32:14.287Z,74.77
2019-02-06T08:34:44.140Z,74.67
2019-02-06T08:37:14.302Z,74.52
2019-02-06T08:39:44.223Z,74.05
2019-02-06T08:42:14.113Z,73.77
2019-02-06T08:44:44.387Z,73.75
2019-02-06T08:47:14.331Z,73.15
2019-02-06T08:49:44.328Z,73.16
2019-02-06T08:52:14.292Z,72.32
2019-02-06T08:54:44.523Z,72.67
2019-02-06T08:57:14.457Z,72.48
2019-02-06T08:59:44.652Z,72.18
2019-02-06T09:02:14.515Z,71.63
2019-02-06T09:04:55.227Z,71.84
2019-02-06T09:07:16.194Z,71.74
2019-02-06T09:09:46.176Z,71.42
2019-02-06T09:12:16.138Z,70.83
2019-02-06T09:14:46.087Z,70.87
2019-02-06T09:17:16.028Z,70.83
2019-02-06T09:19:45.897Z,70.68
2019-02-06T09:22:15.844Z,70.79
2019-02-06T09:24:45.886Z,70.62
2019-02-06T09:27:15.809Z,70.28
2019-02-06T09:29:45.777Z,70.03
2019-02-06T09:32:16.337Z,69.56
2019-02-06T09:34:46.304Z,69.45
2019-02-06T09:37:16.240Z,69.12
2019-02-06T09:39:46.092Z,69.22
2019-02-06T09:42:15.948Z,68.91
2019-02-06T09:44:45.818Z,68.59
2019-02-06T09:47:15.664Z,68.72
2019-02-06T09:49:45.609Z,68.81
2019-02-06T09:52:15.541Z,68.71
2019-02-06T09:54:45.467Z,68.46
2019-02-06T09:57:15.660Z,68.53
2019-02-06T09:59:45.612Z,67.64
2019-02-06T10:02:15.536Z,67.86
2019-02-06T10:04:45.479Z,67.76
2019-02-06T10:07:15.725Z,67.50
2019-02-06T10:09:45.662Z,67.55
2019-02-06T10:12:15.784Z,66.89
2019-02-06T10:14:45.735Z,67.16
2019-02-06T10:17:16.202Z,67.12
2019-02-06T10:19:46.020Z,66.16
2019-02-06T10:22:16.269Z,65.59
2019-02-06T10:24:46.222Z,64.79
2019-02-06T10:27:16.433Z,64.58
2019-02-06T10:29:46.484Z,64.18
2019-02-06T10:32:16.424Z,64.82
2019-02-06T10:34:46.353Z,65.22
2019-02-06T10:37:16.223Z,65.32
2019-02-06T10:39:46.064Z,64.28
2019-02-06T10:42:16.142Z,63.88
2019-02-06T10:44:46.091Z,64.03
2019-02-06T10:47:16.050Z,64.19
2019-02-06T10:49:46.259Z,63.54
2019-02-06T10:52:16.127Z,63.48
2019-02-06T10:54:46.074Z,61.05
2019-02-06T10:57:16.019Z,62.10
2019-02-06T10:59:45.969Z,62.50
2019-02-06T11:02:16.040Z,62.51
2019-02-06T11:04:46.034Z,62.15
2019-02-06T11:07:15.992Z,61.96
2019-02-06T11:09:46.628Z,61.74
2019-02-06T11:12:16.660Z,61.47
2019-02-06T11:14:46.896Z,61.84
2019-02-06T11:17:16.867Z,62.18
2019-02-06T11:19:46.713Z,62.21
2019-02-06T11:22:16.650Z,62.02
2019-02-06T11:24:47.267Z,61.74
2019-02-06T11:27:17.487Z,62.02
2019-02-06T11:29:48.971Z,61.84
2019-02-06T11:32:18.844Z,61.94
2019-02-06T11:34:48.677Z,61.24
2019-02-06T11:37:18.603Z,60.78
2019-02-06T11:39:57.571Z,61.24
2019-02-06T11:42:20.766Z,61.05
2019-02-06T11:44:50.694Z,60.57
2019-02-06T11:47:20.560Z,60.94
2019-02-06T11:49:52.680Z,60.58
2019-02-06T11:52:22.806Z,60.84
2019-02-06T11:54:52.735Z,60.62
2019-02-06T11:57:24.241Z,59.92
2019-02-06T11:59:54.542Z,59.58
2019-02-06T12:02:36.785Z,59.95
2019-02-06T12:04:57.272Z,59.84
2019-02-06T12:07:27.443Z,59.55
2019-02-06T12:10:09.069Z,58.74
2019-02-06T12:12:29.278Z,58.59
2019-02-06T12:14:59.486Z,57.94
2019-02-06T12:17:29.437Z,57.73
2019-02-06T12:19:59.660Z,57.89
2019-02-06T12:22:29.915Z,57.17
2019-02-06T12:24:59.776Z,57.88
2019-02-06T12:27:29.701Z,57.33
2019-02-06T12:29:59.639Z,56.46
2019-02-06T12:32:29.566Z,53.78
2019-02-06T12:34:59.787Z,54.34
2019-02-06T12:37:29.713Z,54.03
2019-02-06T12:39:59.672Z,54.48
2019-02-06T12:42:30.240Z,53.99
2019-02-06T12:45:00.331Z,53.64
2019-02-06T12:47:30.223Z,53.08
2019-02-06T12:50:00.348Z,52.99
2019-02-06T12:52:30.864Z,53.20
2019-02-06T12:55:00.855Z,53.32
2019-02-06T12:57:37.101Z,52.88
2019-02-06T13:00:03.504Z,52.92
2019-02-06T13:02:34.469Z,52.59
2019-02-06T13:05:06.366Z,52.39
2019-02-06T13:07:36.312Z,52.03
2019-02-06T13:10:06.524Z,52.00
2019-02-06T13:12:36.725Z,52.32
2019-02-06T13:15:08.209Z,51.53
2019-02-06T13:17:38.137Z,52.48
2019-02-06T13:20:11.724Z,52.50
2019-02-06T13:22:41.640Z,53.27
2019-02-06T13:25:11.708Z,52.51
2019-02-06T13:27:41.896Z,52.40
2019-02-06T13:30:18.438Z,52.20
2019-02-06T13:32:48.811Z,52.58
2019-02-06T13:35:19.233Z,52.52
2019-02-06T13:37:49.180Z,52.83
2019-02-06T13:40:20.852Z,52.70
2019-02-06T13:42:51.011Z,52.31
2019-02-06T13:45:23.340Z,52.04
2019-02-06T13:47:53.271Z,52.00
2019-02-06T13:50:23.585Z,52.23
2019-02-06T13:52:53.520Z,52.29
2019-02-06T13:55:23.543Z,52.70
2019-02-06T13:57:53.651Z,52.62
2019-02-06T14:00:29.363Z,52.36
2019-02-06T14:02:59.310Z,52.53
2019-02-06T14:05:30.578Z,52.84
2019-02-06T14:08:03.203Z,52.79
2019-02-06T14:10:33.544Z,53.16
2019-02-06T14:13:03.771Z,53.65
2019-02-06T14:15:41.466Z,53.21
2019-02-06T14:18:12.081Z,53.37
2019-02-06T14:20:42.223Z,53.38
2019-02-06T14:23:21.675Z,53.76
2019-02-06T14:26:19.673Z,53.99
2019-02-06T14:29:31.520Z,53.97
2019-02-06T14:32:38.987Z,54.00
2019-02-06T14:35:32.793Z,53.75
2019-02-06T14:38:58.225Z,53.58
2019-02-06T14:41:52.103Z,53.80
2019-02-06T14:44:45.748Z,53.59
2019-02-06T14:48:23.952Z,53.83
2019-02-06T14:51:03.815Z,53.40
2019-02-06T14:53:56.352Z,53.52
2019-02-06T14:57:05.466Z,53.40
2019-02-06T15:00:32.943Z,53.84
2019-02-06T15:03:35.822Z,53.89
2019-02-06T15:06:32.685Z,54.00
2019-02-06T15:09:39.872Z,53.91
2019-02-06T15:12:59.467Z,54.01
2019-02-06T15:15:54.553Z,54.09
2019-02-06T15:18:44.118Z,54.13
2019-02-06T15:21:45.816Z,54.27
2019-02-06T15:24:45.579Z,54.20
2019-02-06T15:27:39.601Z,54.30
2019-02-06T15:30:48.169Z,54.20
2019-02-06T15:34:17.606Z,54.22
2019-02-06T15:37:41.301Z,54.40
2019-02-06T15:40:36.089Z,54.40
2019-02-06T15:43:48.214Z,54.93
2019-02-06T15:46:29.998Z,56.10
2019-02-06T15:49:46.707Z,56.23
2019-02-06T15:52:37.401Z,56.99
2019-02-06T15:55:39.801Z,57.48
2019-02-06T15:58:46.952Z,57.62
2019-02-06T16:01:57.218Z,58.00
2019-02-06T16:05:21.739Z,58.22
2019-02-06T16:08:21.943Z,58.61
2019-02-06T16:11:44.068Z,58.54
2019-02-06T16:14:49.958Z,58.30
2019-02-06T16:18:06.727Z,58.37
2019-02-06T16:21:13.727Z,58.92
2019-02-06T16:24:28.228Z,59.04
2019-02-06T16:27:33.014Z,58.95
2019-02-06T16:30:51.703Z,59.12
2019-02-06T16:34:01.517Z,59.30
2019-02-06T16:36:57.505Z,59.69
2019-02-06T16:39:40.157Z,60.15
2019-02-06T16:42:55.029Z,60.56
2019-02-06T16:45:47.382Z,61.21
2019-02-06T16:48:40.107Z,61.57
2019-02-06T16:51:33.304Z,61.93
2019-02-06T16:54:49.279Z,62.21
2019-02-06T16:57:46.228Z,62.47
2019-02-06T17:00:53.265Z,62.17
2019-02-06T17:04:00.259Z,61.36
2019-02-06T17:06:53.585Z,61.17
2019-02-06T17:09:39.759Z,60.58
2019-02-06T17:12:34.041Z,60.22
2019-02-06T17:15:20.969Z,59.97
2019-02-06T17:18:36.296Z,59.81
2019-02-06T17:21:34.811Z,59.83
2019-02-06T17:24:37.489Z,59.86
2019-02-06T17:27:39.281Z,59.68
2019-02-06T17:30:33.289Z,59.37
2019-02-06T17:33:39.180Z,59.69
2019-02-06T17:36:44.316Z,59.56
2019-02-06T17:39:38.074Z,59.54
2019-02-06T17:43:04.392Z,59.47
2019-02-06T17:46:06.716Z,58.73
2019-02-06T17:49:03.769Z,58.51
2019-02-06T17:51:56.327Z,58.79
2019-02-06T17:55:17.018Z,59.40
2019-02-06T17:57:48.128Z,59.50
2019-02-06T18:00:28.467Z,60.04
2019-02-06T18:03:00.826Z,60.15
2019-02-06T18:05:30.752Z,60.69
2019-02-06T18:08:00.723Z,60.72
2019-02-06T18:10:30.645Z,60.70
2019-02-06T18:13:00.431Z,60.35
2019-02-06T18:15:30.440Z,60.43
2019-02-06T18:18:04.801Z,60.51
2019-02-06T18:20:35.103Z,60.63
2019-02-06T18:23:06.292Z,60.94
2019-02-06T18:25:36.227Z,61.41
2019-02-06T18:28:06.483Z,61.86
2019-02-06T18:30:36.409Z,62.24
2019-02-06T18:33:06.620Z,62.04
2019-02-06T18:35:36.551Z,62.00
2019-02-06T18:38:07.976Z,62.21
2019-02-06T18:40:40.273Z,62.30
2019-02-06T18:43:10.617Z,62.43
2019-02-06T18:45:40.849Z,62.59
2019-02-06T18:48:11.868Z,62.99
2019-02-06T18:50:42.777Z,63.24
2019-02-06T18:53:12.705Z,63.49
2019-02-06T18:55:43.527Z,63.14
2019-02-06T18:58:13.659Z,63.48
2019-02-06T19:00:43.668Z,63.86
2019-02-06T19:03:20.377Z,63.86
2019-02-06T19:05:50.996Z,64.13
2019-02-06T19:08:20.855Z,64.39
2019-02-06T19:10:51.184Z,64.82
2019-02-06T19:13:21.110Z,65.23
2019-02-06T19:15:56.607Z,65.22
2019-02-06T19:18:23.941Z,65.20
2019-02-06T19:20:53.873Z,65.17
2019-02-06T19:23:23.791Z,65.29
2019-02-06T19:25:54.402Z,65.06
2019-02-06T19:28:24.631Z,65.50
2019-02-06T19:30:55.609Z,65.26
2019-02-06T19:33:25.678Z,65.59
2019-02-06T19:35:55.626Z,65.69
2019-02-06T19:38:25.797Z,66.03
2019-02-06T19:40:55.650Z,65.97
2019-02-06T19:43:25.828Z,66.23
2019-02-06T19:45:55.761Z,66.20
2019-02-06T19:48:25.705Z,66.51
2019-02-06T19:50:57.195Z,67.13
2019-02-06T19:53:27.207Z,67.00
2019-02-06T19:55:57.249Z,67.11
2019-02-06T19:58:27.600Z,67.37
2019-02-06T20:00:57.453Z,67.43
2019-02-06T20:03:27.812Z,68.01
2019-02-06T20:05:57.688Z,68.14
2019-02-06T20:08:27.710Z,68.07
2019-02-06T20:10:59.005Z,68.07
2019-02-06T20:13:28.870Z,68.63
2019-02-06T20:15:58.729Z,68.46
2019-02-06T20:18:28.983Z,69.27
2019-02-06T20:20:58.842Z,69.23
2019-02-06T20:23:29.739Z,69.59
2019-02-06T20:25:59.913Z,69.65
2019-02-06T20:28:30.643Z,69.91
2019-02-06T20:31:00.926Z,69.86
2019-02-06T20:33:30.844Z,70.03
2019-02-06T20:36:00.729Z,70.07
2019-02-06T20:38:30.599Z,70.21
2019-02-06T20:41:00.450Z,70.51
2019-02-06T20:43:30.385Z,70.39
2019-02-06T20:46:00.305Z,70.35
2019-02-06T20:48:30.252Z,70.35
2019-02-06T20:51:00.178Z,70.62
2019-02-06T20:53:30.113Z,70.89
2019-02-06T20:55:59.961Z,70.86
2019-02-06T20:58:29.815Z,71.03
2019-02-06T21:00:59.735Z,71.20
2019-02-06T21:03:29.840Z,71.29
2019-02-06T21:05:59.799Z,71.42
2019-02-06T21:08:29.730Z,71.43
2019-02-06T21:10:59.655Z,71.79
2019-02-06T21:13:33.323Z,71.81
2019-02-06T21:16:02.871Z,71.94
2019-02-06T21:18:33.017Z,72.42
2019-02-06T21:21:02.940Z,72.39
2019-02-06T21:23:32.878Z,72.50
2019-02-06T21:26:02.802Z,72.97
2019-02-06T21:28:33.019Z,72.84
2019-02-06T21:31:03.258Z,73.37
2019-02-06T21:33:33.305Z,73.28
2019-02-06T21:36:03.137Z,73.06
2019-02-06T21:38:33.085Z,73.32
2019-02-06T21:41:03.272Z,73.30
2019-02-06T21:43:43.614Z,73.11
2019-02-06T21:46:05.128Z,73.32
2019-02-06T21:48:36.065Z,73.42
2019-02-06T21:51:05.998Z,73.25
2019-02-06T21:53:36.347Z,73.16
2019-02-06T21:56:06.331Z,73.11
2019-02-06T21:58:36.269Z,72.98
2019-02-06T22:01:06.129Z,73.02
2019-02-06T22:03:36.062Z,73.07
2019-02-06T22:06:06.011Z,73.05
2019-02-06T22:08:35.905Z,72.93
2019-02-06T22:11:05.992Z,72.88
2019-02-06T22:13:36.326Z,72.83
2019-02-06T22:16:06.275Z,72.69
2019-02-06T22:18:36.206Z,72.54
2019-02-06T22:21:06.069Z,72.61
2019-02-06T22:23:35.997Z,72.88
2019-02-06T22:26:05.932Z,72.73
2019-02-06T22:28:35.785Z,72.63
2019-02-06T22:31:05.746Z,72.60
2019-02-06T22:33:35.608Z,72.85
2019-02-06T22:36:05.536Z,72.80
2019-02-06T22:38:35.833Z,72.74
2019-02-06T22:41:06.027Z,72.63
2019-02-06T22:43:35.968Z,72.60
2019-02-06T22:46:06.024Z,72.65
2019-02-06T22:48:35.891Z,72.46
2019-02-06T22:51:06.093Z,72.34
2019-02-06T22:53:35.967Z,72.25
2019-02-06T22:56:06.283Z,71.90
2019-02-06T22:58:36.217Z,71.99
2019-02-06T23:01:26.980Z,71.91
2019-02-06T23:03:57.273Z,71.97
2019-02-06T23:06:27.496Z,72.25
2019-02-06T23:08:57.416Z,72.04
2019-02-06T23:11:27.475Z,72.12
2019-02-06T23:13:57.601Z,72.22
2019-02-06T23:16:27.875Z,72.11
2019-02-06T23:18:57.808Z,71.94
2019-02-06T23:21:27.762Z,72.01
2019-02-06T23:23:57.611Z,71.83
2019-02-06T23:26:29.291Z,71.54
2019-02-06T23:29:00.188Z,71.45
2019-02-06T23:31:30.462Z,71.60
2019-02-06T23:34:00.652Z,71.66
2019-02-06T23:36:30.497Z,72.16
2019-02-06T23:39:00.422Z,72.21
2019-02-06T23:41:31.583Z,72.55
2019-02-06T23:44:01.439Z,72.50
2019-02-06T23:46:31.590Z,72.21
2019-02-06T23:49:01.450Z,72.52
2019-02-06T23:51:31.252Z,72.73
2019-02-06T23:54:01.403Z,72.80
2019-02-06T23:56:31.926Z,72.69
2019-02-06T23:59:01.869Z,72.64
